Time;durP1;ratioP1;P1;durP2;ratioP2;P2;SDS_P1;SDS_P2;PMS_P1;PMS_P2;Temp;Humidity;BMP_temperature;BMP_pressure;BME280_temperature;BME280_humidity;BME280_pressure;Samples;Min_cycle;Max_cycle;Signal;HPM_P1;HPM_P2
2021/11/14 00:01:24;;;;;;;21.00;15.17;;;10.90;75.90;;;;;;5069225;28;20113;-81
2021/11/14 00:03:50;;;;;;;19.27;14.17;;;10.90;76.10;;;;;;5088403;28;20447;-81
2021/11/14 00:06:20;;;;;;;19.83;14.07;;;10.80;76.00;;;;;;5058459;28;20122;-81
2021/11/14 00:08:47;;;;;;;15.67;12.60;;;10.90;76.10;;;;;;5058510;28;20024;-81
2021/11/14 00:11:17;;;;;;;16.77;12.40;;;10.90;76.20;;;;;;5048113;28;20025;-81
2021/11/14 00:13:44;;;;;;;16.37;12.30;;;10.90;76.30;;;;;;5033463;28;20040;-81
2021/11/14 00:16:11;;;;;;;17.67;12.07;;;10.90;76.30;;;;;;5048953;28;20427;-81
2021/11/14 00:18:38;;;;;;;18.17;13.70;;;10.90;76.30;;;;;;5038459;28;20048;-82
2021/11/14 00:21:04;;;;;;;21.77;14.10;;;10.90;76.30;;;;;;5044144;28;20020;-81
2021/11/14 00:23:32;;;;;;;18.00;12.60;;;10.90;76.40;;;;;;5050580;28;20031;-81
2021/11/14 00:25:58;;;;;;;20.73;13.67;;;10.90;76.30;;;;;;5042545;28;20527;-81
2021/11/14 00:28:27;;;;;;;19.57;15.77;;;10.90;76.30;;;;;;5052596;28;20818;-81
2021/11/14 00:30:53;;;;;;;23.87;16.33;;;10.90;76.30;;;;;;5014005;28;20049;-81
2021/11/14 00:33:21;;;;;;;22.83;16.57;;;10.90;76.40;;;;;;5000857;28;20072;-81
2021/11/14 00:35:51;;;;;;;22.80;16.47;;;10.90;76.40;;;;;;5034262;28;20025;-81
2021/11/14 00:38:18;;;;;;;20.57;15.77;;;10.90;76.50;;;;;;5012303;28;20121;-81
2021/11/14 00:40:44;;;;;;;20.73;14.27;;;10.90;76.50;;;;;;5063334;28;20022;-81
2021/11/14 00:43:10;;;;;;;20.93;14.37;;;10.90;76.50;;;;;;5030300;28;20524;-81
2021/11/14 00:45:38;;;;;;;21.80;15.53;;;10.90;76.80;;;;;;5021811;28;20072;-81
2021/11/14 00:48:04;;;;;;;21.57;14.73;;;10.90;76.70;;;;;;5028395;28;20493;-81
2021/11/14 00:50:32;;;;;;;18.23;13.77;;;10.80;76.60;;;;;;5035124;28;20395;-81
2021/11/14 00:53:00;;;;;;;19.60;12.90;;;10.90;76.70;;;;;;5016637;28;20158;-81
2021/11/14 00:55:30;;;;;;;16.90;12.80;;;10.80;76.90;;;;;;5014526;28;20036;-81
2021/11/14 00:57:57;;;;;;;19.33;13.23;;;10.90;76.80;;;;;;5012475;28;20029;-81
2021/11/14 01:00:25;;;;;;;20.00;13.97;;;10.90;76.80;;;;;;5010616;28;20065;-81
2021/11/14 01:02:52;;;;;;;20.63;14.33;;;10.80;77.00;;;;;;5040507;28;20376;-81
2021/11/14 01:05:20;;;;;;;24.50;16.23;;;10.90;77.10;;;;;;5016286;28;20020;-81
2021/11/14 01:07:47;;;;;;;20.93;15.53;;;10.90;77.10;;;;;;5036399;28;20468;-81
2021/11/14 01:10:20;;;;;;;22.07;14.73;;;10.90;77.00;;;;;;5008951;28;21092;-81
2021/11/14 01:12:47;;;;;;;21.13;14.77;;;10.90;76.90;;;;;;5030408;28;20052;-81
2021/11/14 01:15:15;;;;;;;18.93;13.67;;;10.90;76.90;;;;;;5040066;28;20468;-81
2021/11/14 01:17:42;;;;;;;20.00;14.83;;;10.90;76.90;;;;;;5030344;28;20025;-81
2021/11/14 01:20:11;;;;;;;26.53;15.37;;;10.90;76.90;;;;;;5012889;28;20029;-81
2021/11/14 01:22:37;;;;;;;20.70;14.43;;;10.90;76.70;;;;;;5018542;28;20029;-81
2021/11/14 01:25:04;;;;;;;20.27;13.50;;;10.80;76.90;;;;;;5008046;28;20040;-81
2021/11/14 01:27:30;;;;;;;19.90;13.70;;;10.90;77.60;;;;;;5030981;28;20023;-81
2021/11/14 01:29:56;;;;;;;23.40;14.03;;;10.80;76.90;;;;;;5024255;28;20034;-81
2021/11/14 01:32:22;;;;;;;19.37;14.87;;;10.80;77.10;;;;;;5031060;28;20030;-81
2021/11/14 01:34:49;;;;;;;20.27;14.93;;;10.80;77.00;;;;;;5038665;28;20025;-82
2021/11/14 01:37:15;;;;;;;17.90;14.50;;;10.80;77.80;;;;;;5011922;28;20547;-81
2021/11/14 01:39:41;;;;;;;20.93;15.00;;;10.80;77.10;;;;;;5033550;28;20100;-81
2021/11/14 01:42:07;;;;;;;19.63;14.27;;;10.80;77.10;;;;;;5026559;28;20029;-81
2021/11/14 01:44:33;;;;;;;19.03;13.87;;;10.80;77.10;;;;;;5039165;28;20040;-81
2021/11/14 01:46:59;;;;;;;18.57;13.83;;;10.80;77.10;;;;;;5012275;28;20017;-81
2021/11/14 01:49:25;;;;;;;19.17;14.03;;;10.80;77.20;;;;;;5038548;28;20114;-82
2021/11/14 01:51:52;;;;;;;19.23;13.60;;;10.80;77.20;;;;;;5020536;28;20032;-81
2021/11/14 01:54:19;;;;;;;20.33;13.77;;;10.80;77.30;;;;;;5013582;28;20025;-81
2021/11/14 01:56:49;;;;;;;21.17;15.27;;;10.80;77.30;;;;;;5013921;28;20072;-81
2021/11/14 01:59:16;;;;;;;17.57;13.97;;;10.80;77.30;;;;;;5023904;28;20120;-81
2021/11/14 02:01:42;;;;;;;19.77;14.07;;;10.80;77.30;;;;;;5018180;28;20479;-81
2021/11/14 02:04:08;;;;;;;20.57;15.13;;;10.70;77.30;;;;;;5022370;28;20033;-81
2021/11/14 02:06:36;;;;;;;22.30;16.60;;;10.80;77.40;;;;;;5042719;28;20033;-81
2021/11/14 02:09:04;;;;;;;21.47;16.30;;;10.80;77.30;;;;;;5030316;28;20108;-81
2021/11/14 02:11:31;;;;;;;22.57;16.93;;;10.80;77.50;;;;;;5013739;28;20117;-81
2021/11/14 02:13:57;;;;;;;23.63;18.60;;;10.70;77.40;;;;;;5015876;28;20711;-81
2021/11/14 02:16:27;;;;;;;24.53;19.10;;;10.70;77.50;;;;;;5035017;28;20036;-81
2021/11/14 02:18:53;;;;;;;26.80;18.97;;;10.70;77.60;;;;;;5016116;28;20124;-81
2021/11/14 02:21:20;;;;;;;25.97;19.00;;;10.70;77.50;;;;;;5039748;28;20120;-81
2021/11/14 02:23:48;;;;;;;25.93;19.30;;;10.70;77.50;;;;;;5031494;28;20029;-81
2021/11/14 02:26:14;;;;;;;24.23;17.33;;;10.60;77.50;;;;;;5018570;28;20028;-81
2021/11/14 02:28:40;;;;;;;25.30;19.47;;;10.70;77.60;;;;;;5048525;28;20041;-81
2021/11/14 02:31:06;;;;;;;24.50;18.43;;;10.60;77.70;;;;;;5056300;28;20146;-81
2021/11/14 02:33:32;;;;;;;25.03;18.93;;;10.60;77.80;;;;;;5037866;28;20071;-81
2021/11/14 02:36:05;;;;;;;26.93;21.07;;;10.60;77.80;;;;;;5029853;28;20036;-80
2021/11/14 02:38:32;;;;;;;23.15;18.25;;;10.60;77.70;;;;;;5032347;28;20559;-81
2021/11/14 02:41:00;;;;;;;24.70;17.73;;;10.60;77.50;;;;;;5053069;28;20383;-81
2021/11/14 02:43:26;;;;;;;25.17;19.40;;;10.60;77.80;;;;;;5019045;28;20521;-81
2021/11/14 02:45:52;;;;;;;26.03;19.10;;;10.60;77.70;;;;;;5033074;28;20502;-81
2021/11/14 02:48:18;;;;;;;25.83;19.53;;;10.60;77.70;;;;;;5047192;28;20115;-81
2021/11/14 02:50:48;;;;;;;23.77;17.97;;;10.60;77.60;;;;;;5032896;28;20029;-81
2021/11/14 02:53:14;;;;;;;25.47;19.93;;;10.60;77.80;;;;;;5047104;28;20040;-81
2021/11/14 02:55:41;;;;;;;25.27;18.60;;;10.60;78.00;;;;;;5032893;28;20037;-81
2021/11/14 02:58:08;;;;;;;24.67;18.47;;;10.60;77.90;;;;;;5049175;28;20502;-81
2021/11/14 03:00:43;;;;;;;21.70;16.23;;;10.60;77.80;;;;;;5053778;28;20021;-81
2021/11/14 03:03:09;;;;;;;23.83;16.40;;;10.60;77.90;;;;;;5052017;28;20020;-81
2021/11/14 03:05:36;;;;;;;20.17;15.87;;;10.60;78.00;;;;;;5072901;28;20024;-81
2021/11/14 03:08:03;;;;;;;22.37;17.20;;;10.60;77.90;;;;;;5046914;28;20430;-81
2021/11/14 03:10:30;;;;;;;18.27;15.23;;;10.50;78.10;;;;;;5037158;28;20060;-81
2021/11/14 03:13:21;;;;;;;19.60;14.20;;;10.60;78.40;;;;;;5050641;28;20452;-81
2021/11/14 03:15:52;;;;;;;16.40;12.77;;;10.60;78.20;;;;;;5049239;28;20209;-81
2021/11/14 03:18:20;;;;;;;19.20;14.40;;;10.60;78.20;;;;;;5053385;28;20045;-81
2021/11/14 03:20:47;;;;;;;17.60;13.97;;;10.60;78.00;;;;;;5045951;28;20013;-81
2021/11/14 03:23:14;;;;;;;17.40;14.70;;;10.60;78.10;;;;;;5040201;28;20467;-81
2021/11/14 03:25:41;;;;;;;16.90;13.40;;;10.70;78.10;;;;;;5034835;28;20033;-81
2021/11/14 03:28:07;;;;;;;16.53;12.50;;;10.70;78.00;;;;;;5043584;28;20043;-81
2021/11/14 03:30:34;;;;;;;19.70;13.73;;;10.60;78.00;;;;;;5034811;28;20033;-81
2021/11/14 03:33:01;;;;;;;19.63;13.20;;;10.60;78.00;;;;;;5044705;28;20060;-81
2021/11/14 03:35:36;;;;;;;16.57;12.77;;;10.60;78.10;;;;;;5033583;28;20032;-81
2021/11/14 03:38:01;;;;;;;14.40;12.20;;;10.60;78.00;;;;;;5043908;28;20025;-81
2021/11/14 03:40:27;;;;;;;13.97;11.47;;;10.60;78.10;;;;;;5036835;28;20036;-81
2021/11/14 03:42:53;;;;;;;14.17;10.67;;;10.60;78.70;;;;;;5064642;28;20124;-80
2021/11/14 03:45:19;;;;;;;15.20;11.63;;;10.60;78.70;;;;;;5030340;28;20041;-80
2021/11/14 03:47:45;;;;;;;15.63;12.17;;;10.70;78.10;;;;;;5031635;28;20060;-80
2021/11/14 03:50:11;;;;;;;16.30;13.43;;;10.60;78.00;;;;;;5030305;28;20031;-80
2021/11/14 03:52:38;;;;;;;16.37;12.67;;;10.60;78.00;;;;;;5044743;28;20032;-80
2021/11/14 03:55:05;;;;;;;15.93;13.27;;;10.70;78.10;;;;;;5049363;28;20500;-80
2021/11/14 03:57:31;;;;;;;18.17;14.13;;;10.60;77.70;;;;;;5028065;28;20400;-80
2021/11/14 03:59:56;;;;;;;20.00;15.53;;;10.60;78.20;;;;;;5046381;28;20021;-80
2021/11/14 04:02:22;;;;;;;20.27;16.17;;;10.50;78.30;;;;;;5025476;28;20025;-80
2021/11/14 04:04:48;;;;;;;22.43;16.93;;;10.60;78.30;;;;;;5053440;28;20116;-80
2021/11/14 04:07:14;;;;;;;21.73;16.70;;;10.60;78.20;;;;;;5032937;28;20091;-80
2021/11/14 04:09:39;;;;;;;21.53;17.50;;;10.60;78.00;;;;;;5038513;28;20426;-80
2021/11/14 04:12:06;;;;;;;23.07;17.20;;;10.60;77.90;;;;;;5028258;28;20028;-80
2021/11/14 04:14:32;;;;;;;22.73;17.47;;;10.60;77.90;;;;;;5046012;28;20382;-80
2021/11/14 04:16:58;;;;;;;23.87;16.90;;;10.60;77.80;;;;;;5036362;28;20025;-80
2021/11/14 04:19:26;;;;;;;22.03;17.03;;;10.60;77.80;;;;;;5061373;28;20103;-80
2021/11/14 04:21:52;;;;;;;24.50;19.33;;;10.60;77.80;;;;;;5054411;28;20018;-80
2021/11/14 04:24:18;;;;;;;24.43;18.37;;;10.60;77.80;;;;;;5030566;28;20100;-80
2021/11/14 04:26:44;;;;;;;25.93;19.70;;;10.50;77.80;;;;;;5036432;28;20125;-80
2021/11/14 04:29:09;;;;;;;21.70;15.77;;;10.40;78.10;;;;;;5058322;28;20049;-80
2021/11/14 04:31:36;;;;;;;20.13;15.63;;;10.40;78.10;;;;;;5024684;28;20032;-80
2021/11/14 04:34:02;;;;;;;20.67;14.97;;;10.40;78.30;;;;;;5064301;28;20079;-80
2021/11/14 04:36:28;;;;;;;20.63;14.23;;;10.30;78.40;;;;;;5046170;28;20029;-80
2021/11/14 04:38:54;;;;;;;19.17;13.47;;;10.30;78.50;;;;;;5044442;28;20039;-80
2021/11/14 04:41:20;;;;;;;18.33;13.87;;;10.40;78.30;;;;;;5028940;28;20471;-80
2021/11/14 04:43:45;;;;;;;18.00;14.17;;;10.40;78.40;;;;;;5045677;28;20032;-80
2021/11/14 04:46:11;;;;;;;18.20;14.87;;;10.40;78.20;;;;;;5055023;28;20067;-80
2021/11/14 04:48:37;;;;;;;20.07;14.00;;;10.40;78.10;;;;;;5067211;28;20116;-80
2021/11/14 04:51:03;;;;;;;17.73;14.10;;;10.40;78.20;;;;;;5039265;28;20046;-80
2021/11/14 04:53:29;;;;;;;18.87;14.37;;;10.40;78.10;;;;;;5044750;28;20020;-80
2021/11/14 04:55:55;;;;;;;18.67;13.43;;;10.40;78.10;;;;;;5049103;28;20082;-80
2021/11/14 04:58:21;;;;;;;17.63;13.07;;;10.40;78.10;;;;;;5062634;28;20048;-80
2021/11/14 05:00:52;;;;;;;18.93;14.17;;;10.40;78.10;;;;;;5041503;28;20033;-80
2021/11/14 05:03:20;;;;;;;20.63;14.73;;;10.40;78.20;;;;;;5044372;28;20029;-80
2021/11/14 05:05:45;;;;;;;15.87;10.97;;;10.40;78.10;;;;;;5029833;28;20025;-80
2021/11/14 05:08:11;;;;;;;17.60;13.27;;;10.40;78.10;;;;;;5068437;28;20336;-80
2021/11/14 05:10:41;;;;;;;17.53;12.60;;;10.40;78.10;;;;;;5032659;28;20025;-80
2021/11/14 05:13:07;;;;;;;16.23;12.23;;;10.40;78.20;;;;;;5041478;28;20455;-80
2021/11/14 05:15:33;;;;;;;13.17;10.20;;;10.40;78.10;;;;;;5042965;28;20168;-80
2021/11/14 05:17:59;;;;;;;13.30;9.63;;;10.40;78.10;;;;;;5068919;28;20029;-80
2021/11/14 05:20:24;;;;;;;10.00;8.47;;;10.40;77.90;;;;;;5045827;28;20032;-79
2021/11/14 05:22:50;;;;;;;10.03;7.90;;;10.40;77.90;;;;;;5040945;28;20044;-80
2021/11/14 05:25:16;;;;;;;8.57;7.30;;;10.40;77.70;;;;;;5068350;28;20409;-80
2021/11/14 05:27:42;;;;;;;9.90;7.47;;;10.40;77.60;;;;;;5036207;28;20033;-81
2021/11/14 05:30:10;;;;;;;8.30;7.03;;;10.40;77.60;;;;;;5051621;28;20101;-80
2021/11/14 05:32:36;;;;;;;9.77;6.67;;;10.30;77.60;;;;;;5034305;28;20025;-80
2021/11/14 05:35:03;;;;;;;8.33;6.53;;;10.30;77.70;;;;;;5035743;28;20028;-80
2021/11/14 05:37:29;;;;;;;8.90;6.87;;;10.30;77.50;;;;;;5034842;28;20108;-80
2021/11/14 05:39:55;;;;;;;7.60;6.27;;;10.30;77.50;;;;;;5031162;28;20105;-81
2021/11/14 05:42:22;;;;;;;8.87;6.77;;;10.30;77.50;;;;;;5043842;28;20028;-80
2021/11/14 05:44:48;;;;;;;7.67;6.27;;;10.30;77.50;;;;;;5029014;28;20040;-80
2021/11/14 05:47:14;;;;;;;7.10;5.47;;;10.30;77.50;;;;;;5041114;28;20025;-80
2021/11/14 05:49:39;;;;;;;7.00;5.30;;;10.30;77.50;;;;;;5032718;28;20020;-80
2021/11/14 05:52:06;;;;;;;7.27;5.50;;;10.30;77.50;;;;;;5054023;28;20100;-80
2021/11/14 05:54:32;;;;;;;9.70;6.00;;;10.20;77.50;;;;;;5050466;28;20017;-80
2021/11/14 05:56:58;;;;;;;8.73;5.80;;;10.20;77.60;;;;;;5036934;28;20019;-80
2021/11/14 06:02:16;;;;;;;6.63;5.40;;;10.20;77.60;;;;;;5047137;28;20379;-80
2021/11/14 06:07:45;;;;;;;7.17;5.60;;;10.20;77.50;;;;;;4987304;28;20084;-80
2021/11/14 06:10:11;;;;;;;8.07;4.63;;;10.10;77.40;;;;;;5044386;28;20083;-80
2021/11/14 06:12:37;;;;;;;8.53;5.90;;;10.10;77.60;;;;;;5046244;28;20029;-80
2021/11/14 06:15:09;;;;;;;12.80;5.23;;;10.10;77.50;;;;;;5071512;28;20429;-80
2021/11/14 06:17:36;;;;;;;7.57;4.40;;;10.10;77.40;;;;;;5027658;28;20576;-80
2021/11/14 06:20:03;;;;;;;6.77;4.80;;;10.10;77.70;;;;;;5050164;28;20028;-80
2021/11/14 06:22:29;;;;;;;5.33;4.83;;;10.10;77.60;;;;;;5034231;28;20021;-80
2021/11/14 06:24:54;;;;;;;4.83;4.10;;;10.10;77.50;;;;;;5048675;28;20120;-80
2021/11/14 06:27:21;;;;;;;5.63;4.00;;;10.00;77.60;;;;;;5040217;28;20833;-80
2021/11/14 06:29:47;;;;;;;5.37;3.90;;;10.10;77.60;;;;;;5055514;28;20072;-80
2021/11/14 06:32:13;;;;;;;6.30;3.90;;;10.10;77.40;;;;;;5055333;28;20083;-80
2021/11/14 06:34:39;;;;;;;5.57;3.70;;;10.10;77.30;;;;;;5034216;28;20029;-80
2021/11/14 06:37:05;;;;;;;4.77;3.70;;;10.10;77.30;;;;;;5036959;28;20048;-80
2021/11/14 06:39:31;;;;;;;7.80;6.07;;;10.00;77.20;;;;;;5038456;28;20025;-80
2021/11/14 06:41:56;;;;;;;9.03;7.13;;;10.00;77.30;;;;;;5053419;28;20048;-80
2021/11/14 06:44:22;;;;;;;8.10;5.93;;;10.00;77.40;;;;;;5051842;28;20594;-80
2021/11/14 06:46:48;;;;;;;8.87;5.50;;;9.90;77.30;;;;;;5036532;28;20024;-80
2021/11/14 06:49:13;;;;;;;5.13;3.60;;;9.90;77.30;;;;;;5056227;28;20040;-80
2021/11/14 06:51:39;;;;;;;4.87;3.50;;;9.90;77.00;;;;;;5045290;28;20432;-80
2021/11/14 06:54:05;;;;;;;6.93;3.60;;;9.90;77.10;;;;;;5047586;28;20033;-80
2021/11/14 06:56:31;;;;;;;5.43;3.43;;;9.80;77.00;;;;;;5028665;28;20107;-80
2021/11/14 06:58:57;;;;;;;5.87;3.50;;;9.80;77.10;;;;;;5040089;28;20882;-80
2021/11/14 07:01:22;;;;;;;8.33;5.33;;;9.80;77.40;;;;;;5039909;28;20103;-80
2021/11/14 07:03:48;;;;;;;6.90;3.80;;;9.80;77.30;;;;;;5051749;28;20092;-80
2021/11/14 07:06:14;;;;;;;5.00;3.80;;;9.80;77.20;;;;;;5048906;28;20040;-79
2021/11/14 07:08:39;;;;;;;4.77;3.47;;;9.80;77.20;;;;;;5042203;28;20589;-79
2021/11/14 07:11:05;;;;;;;5.13;3.90;;;9.80;77.20;;;;;;5061212;28;20067;-79
2021/11/14 07:13:32;;;;;;;7.50;5.10;;;9.80;77.20;;;;;;5038824;28;20029;-80
2021/11/14 07:15:58;;;;;;;7.50;5.23;;;9.80;77.00;;;;;;5038539;28;20033;-80
2021/11/14 07:18:23;;;;;;;4.70;3.73;;;9.80;77.10;;;;;;5027778;28;20033;-80
2021/11/14 07:20:50;;;;;;;5.10;3.77;;;9.80;77.00;;;;;;5061814;28;20029;-80
2021/11/14 07:23:16;;;;;;;4.40;3.47;;;9.80;77.00;;;;;;5061327;28;20667;-80
2021/11/14 07:25:41;;;;;;;5.67;3.50;;;9.80;76.90;;;;;;5055763;28;20027;-80
2021/11/14 07:28:08;;;;;;;4.17;3.13;;;9.80;76.80;;;;;;5054970;28;20484;-80
2021/11/14 07:30:34;;;;;;;4.30;3.50;;;9.80;76.90;;;;;;5042134;28;20056;-80
2021/11/14 07:33:00;;;;;;;4.70;3.53;;;9.80;77.00;;;;;;5026672;28;20392;-80
2021/11/14 07:35:26;;;;;;;5.40;3.33;;;9.80;76.70;;;;;;5041538;28;20467;-80
2021/11/14 07:37:53;;;;;;;8.13;3.93;;;9.80;76.80;;;;;;5054957;28;20519;-80
2021/11/14 07:40:23;;;;;;;4.77;3.50;;;9.80;76.90;;;;;;5056612;28;20037;-80
2021/11/14 07:42:51;;;;;;;4.67;3.40;;;9.80;76.50;;;;;;5056278;28;20078;-80
2021/11/14 07:45:20;;;;;;;5.43;3.53;;;9.80;76.50;;;;;;5062825;28;20025;-80
2021/11/14 07:47:47;;;;;;;5.40;3.67;;;9.90;76.50;;;;;;5061624;28;20024;-80
2021/11/14 07:50:14;;;;;;;6.13;3.63;;;9.90;76.50;;;;;;5037405;28;20025;-80
2021/11/14 07:52:40;;;;;;;6.23;3.60;;;9.90;76.40;;;;;;5064614;28;20043;-80
2021/11/14 07:55:10;;;;;;;5.30;3.63;;;9.80;76.30;;;;;;5065223;28;20025;-80
2021/11/14 07:57:42;;;;;;;5.73;4.33;;;9.80;76.20;;;;;;5047289;28;20399;-80
2021/11/14 08:00:13;;;;;;;6.40;4.70;;;9.90;76.40;;;;;;5046933;28;20021;-81
2021/11/14 08:02:39;;;;;;;6.10;4.73;;;9.90;76.30;;;;;;5044732;28;20099;-80
2021/11/14 08:05:06;;;;;;;8.53;5.80;;;9.80;76.20;;;;;;5056725;28;20017;-80
2021/11/14 08:07:32;;;;;;;7.77;5.03;;;9.80;76.30;;;;;;5047952;28;20381;-80
2021/11/14 08:09:59;;;;;;;7.67;4.63;;;9.80;76.40;;;;;;5047819;28;20776;-80
2021/11/14 08:12:25;;;;;;;6.67;4.60;;;9.90;76.60;;;;;;5065487;28;20032;-80
2021/11/14 08:14:51;;;;;;;6.23;4.37;;;9.90;76.50;;;;;;5046275;28;20029;-80
2021/11/14 08:17:16;;;;;;;7.20;5.17;;;9.90;77.00;;;;;;5043608;28;20033;-80
2021/11/14 08:19:43;;;;;;;8.87;6.20;;;9.90;76.50;;;;;;5037925;28;20025;-80
2021/11/14 08:22:09;;;;;;;6.03;4.50;;;9.90;76.60;;;;;;5046167;28;20021;-80
2021/11/14 08:24:34;;;;;;;6.53;5.43;;;9.90;76.40;;;;;;5044355;28;20100;-80
2021/11/14 08:27:00;;;;;;;7.67;5.63;;;9.90;76.60;;;;;;5045592;28;20124;-80
2021/11/14 08:29:26;;;;;;;5.90;4.50;;;9.80;76.50;;;;;;5063763;28;20519;-80
2021/11/14 08:31:52;;;;;;;9.83;4.60;;;9.90;76.70;;;;;;5042706;28;20566;-80
2021/11/14 08:34:17;;;;;;;5.40;3.83;;;9.90;76.60;;;;;;5057065;28;20111;-80
2021/11/14 08:36:43;;;;;;;4.73;3.30;;;9.90;76.60;;;;;;5026855;28;20044;-80
2021/11/14 08:39:09;;;;;;;4.60;3.33;;;9.90;76.30;;;;;;5054774;28;20104;-80
2021/11/14 08:41:35;;;;;;;4.40;3.27;;;9.90;76.20;;;;;;5040647;28;20049;-80
2021/11/14 08:44:01;;;;;;;4.57;3.80;;;9.90;76.30;;;;;;5027128;28;20034;-80
2021/11/14 08:46:26;;;;;;;4.77;3.40;;;9.90;76.40;;;;;;5054934;28;20029;-80
2021/11/14 08:48:53;;;;;;;5.07;3.57;;;9.90;76.20;;;;;;5032411;28;20032;-81
2021/11/14 08:51:21;;;;;;;5.07;3.60;;;9.90;76.30;;;;;;5038244;28;20488;-81
2021/11/14 08:53:47;;;;;;;6.90;4.30;;;9.90;76.20;;;;;;5057208;28;20064;-80
2021/11/14 08:56:13;;;;;;;8.37;5.50;;;10.00;76.10;;;;;;5053288;28;20028;-80
2021/11/14 08:58:40;;;;;;;9.40;5.43;;;10.00;76.00;;;;;;5057022;28;20056;-80
2021/11/14 09:01:10;;;;;;;6.50;4.47;;;10.00;76.00;;;;;;5054526;28;20031;-80
2021/11/14 09:03:37;;;;;;;6.10;4.10;;;10.00;75.90;;;;;;5046083;28;20079;-80
2021/11/14 09:06:03;;;;;;;5.17;4.27;;;10.00;75.90;;;;;;5031385;28;20053;-80
2021/11/14 09:08:29;;;;;;;7.37;4.10;;;10.00;76.00;;;;;;5052056;28;20365;-80
2021/11/14 09:10:56;;;;;;;6.97;4.33;;;10.10;76.10;;;;;;5062723;28;20031;-80
2021/11/14 09:13:22;;;;;;;9.80;6.17;;;10.10;76.00;;;;;;5055673;28;20028;-80
2021/11/14 09:15:48;;;;;;;10.80;6.67;;;10.00;75.90;;;;;;5049663;28;20475;-79
2021/11/14 09:18:16;;;;;;;8.63;5.73;;;10.00;75.90;;;;;;5061325;28;20036;-79
2021/11/14 09:20:42;;;;;;;8.30;5.43;;;10.00;76.10;;;;;;5052588;28;20020;-80
2021/11/14 09:23:07;;;;;;;7.27;5.27;;;10.00;76.30;;;;;;5063587;28;20025;-81
2021/11/14 09:25:39;;;;;;;5.77;3.80;;;9.90;76.40;;;;;;5037928;28;20032;-81
2021/11/14 09:28:06;;;;;;;5.83;3.67;;;10.00;76.30;;;;;;5032879;28;20086;-81
2021/11/14 09:30:31;;;;;;;4.47;3.53;;;9.90;76.10;;;;;;5045473;28;20028;-81
2021/11/14 09:32:57;;;;;;;4.33;3.50;;;9.90;76.20;;;;;;5053815;28;21858;-81
2021/11/14 09:35:23;;;;;;;4.77;3.50;;;10.00;76.30;;;;;;5040861;28;20036;-80
2021/11/14 09:37:49;;;;;;;6.47;3.37;;;10.00;76.10;;;;;;5037302;28;20025;-82
2021/11/14 09:40:15;;;;;;;3.90;3.43;;;10.00;76.00;;;;;;5046176;28;20100;-82
2021/11/14 09:42:42;;;;;;;5.70;3.60;;;10.00;75.80;;;;;;5032205;28;20073;-81
2021/11/14 09:45:09;;;;;;;5.00;3.70;;;9.90;75.80;;;;;;5038819;28;20028;-80
2021/11/14 09:47:38;;;;;;;4.20;3.80;;;9.90;75.80;;;;;;5037655;28;20112;-81
2021/11/14 09:50:06;;;;;;;8.97;4.67;;;9.90;75.90;;;;;;5037793;28;20029;-81
2021/11/14 09:52:32;;;;;;;5.43;3.80;;;10.00;75.90;;;;;;5037310;28;20079;-82
2021/11/14 09:55:01;;;;;;;3.80;3.10;;;10.00;75.70;;;;;;5048967;28;20032;-81
2021/11/14 09:57:27;;;;;;;5.20;3.40;;;10.00;75.50;;;;;;5039620;28;20484;-81
2021/11/14 09:59:52;;;;;;;4.13;3.33;;;10.00;75.40;;;;;;5036554;28;20037;-81
2021/11/14 10:02:19;;;;;;;4.77;3.43;;;9.90;75.30;;;;;;5053831;28;20383;-81
2021/11/14 10:04:45;;;;;;;4.97;3.43;;;10.00;75.60;;;;;;5027928;28;20120;-81
2021/11/14 10:07:16;;;;;;;4.50;3.60;;;10.00;75.70;;;;;;5028192;28;20110;-81
2021/11/14 10:09:47;;;;;;;3.40;2.67;;;10.10;75.90;;;;;;5044523;28;20136;-81
2021/11/14 10:12:28;;;;;;;4.00;2.97;;;10.10;75.70;;;;;;5029185;28;20122;-81
2021/11/14 10:15:11;;;;;;;5.10;2.73;;;10.10;75.60;;;;;;5030073;28;20044;-80
2021/11/14 10:17:38;;;;;;;4.07;3.00;;;10.20;75.50;;;;;;5033117;28;20450;-80
2021/11/14 10:20:18;;;;;;;5.17;3.00;;;10.20;75.30;;;;;;5047341;28;20033;-81
2021/11/14 10:22:46;;;;;;;5.57;3.37;;;10.20;75.40;;;;;;5051656;28;20090;-82
2021/11/14 10:25:14;;;;;;;5.30;3.27;;;10.20;75.40;;;;;;5034308;28;20021;-80
2021/11/14 10:27:42;;;;;;;5.70;4.57;;;10.20;75.20;;;;;;5053658;28;20029;-82
2021/11/14 10:30:11;;;;;;;5.53;3.03;;;10.20;75.10;;;;;;5032590;28;20029;-81
2021/11/14 10:32:37;;;;;;;7.67;4.93;;;10.20;75.00;;;;;;5056552;28;20167;-82
2021/11/14 10:35:04;;;;;;;8.30;4.43;;;10.20;75.10;;;;;;5039288;28;20028;-80
2021/11/14 10:37:42;;;;;;;5.80;4.27;;;10.20;74.90;;;;;;5057387;28;20163;-81
2021/11/14 10:40:10;;;;;;;7.20;4.87;;;10.30;74.90;;;;;;5031662;28;20017;-80
2021/11/14 10:42:36;;;;;;;7.53;5.13;;;10.30;74.90;;;;;;5034427;28;20090;-81
2021/11/14 10:45:04;;;;;;;7.87;5.67;;;10.30;75.00;;;;;;5032323;28;20017;-81
2021/11/14 10:47:31;;;;;;;7.53;5.20;;;10.30;75.00;;;;;;5059046;28;20440;-82
2021/11/14 10:50:07;;;;;;;6.57;5.30;;;10.40;75.00;;;;;;5051803;28;20025;-80
2021/11/14 10:52:35;;;;;;;7.90;5.30;;;10.40;74.90;;;;;;5059434;28;20024;-81
2021/11/14 10:55:08;;;;;;;8.53;6.47;;;10.50;75.00;;;;;;5035163;28;20106;-81
2021/11/14 10:57:36;;;;;;;8.17;6.37;;;10.50;75.10;;;;;;5054485;28;20033;-81
2021/11/14 11:00:09;;;;;;;9.63;5.70;;;10.50;75.10;;;;;;5050821;28;20036;-80
2021/11/14 11:02:38;;;;;;;6.90;5.32;;;10.50;75.30;;;;;;5038609;28;20041;-81
2021/11/14 11:05:31;;;;;;;8.30;4.63;;;10.60;75.20;;;;;;5041962;28;20035;-81
2021/11/14 11:08:12;;;;;;;5.90;5.10;;;10.60;75.10;;;;;;5032527;28;20527;-81
2021/11/14 11:10:38;;;;;;;8.03;5.90;;;10.60;75.00;;;;;;5034112;28;20275;-82
2021/11/14 11:13:16;;;;;;;7.67;6.30;;;10.60;75.00;;;;;;5054127;28;20663;-81
2021/11/14 11:15:48;;;;;;;9.33;7.03;;;10.60;75.20;;;;;;5040922;28;20086;-82
2021/11/14 11:18:17;;;;;;;9.88;8.40;;;10.70;75.30;;;;;;5008008;28;20116;-80
2021/11/14 11:20:46;;;;;;;10.00;7.80;;;10.70;75.20;;;;;;5038522;28;20035;-80
2021/11/14 11:23:17;;;;;;;11.60;8.53;;;10.80;75.30;;;;;;5029892;28;20033;-81
2021/11/14 11:25:45;;;;;;;11.80;10.20;;;10.80;75.20;;;;;;5030367;28;20476;-81
2021/11/14 11:28:19;;;;;;;10.57;9.40;;;10.80;75.20;;;;;;5046794;28;20048;-82
2021/11/14 11:30:48;;;;;;;14.03;10.03;;;10.80;75.20;;;;;;5030533;28;20044;-81
2021/11/14 11:33:18;;;;;;;14.77;10.40;;;10.90;75.20;;;;;;5016125;28;20049;-81
2021/11/14 11:35:44;;;;;;;15.23;11.73;;;10.90;75.20;;;;;;5010587;28;20128;-81
2021/11/14 11:38:10;;;;;;;16.17;10.13;;;11.00;75.30;;;;;;5025894;28;20033;-80
2021/11/14 11:40:37;;;;;;;16.83;10.83;;;11.00;75.00;;;;;;5043233;28;20125;-81
2021/11/14 11:43:03;;;;;;;11.90;9.37;;;11.10;75.20;;;;;;5051053;28;20088;-81
2021/11/14 11:45:35;;;;;;;15.20;10.97;;;11.10;75.10;;;;;;5031797;28;20026;-81
2021/11/14 11:48:13;;;;;;;13.07;10.93;;;11.10;74.90;;;;;;5018980;28;20479;-81
2021/11/14 11:50:40;;;;;;;10.97;8.90;;;11.10;75.00;;;;;;5058360;28;20037;-82
2021/11/14 11:53:05;;;;;;;11.93;8.07;;;11.20;74.90;;;;;;5036451;28;20061;-82
2021/11/14 11:55:37;;;;;;;9.40;7.27;;;11.20;74.70;;;;;;5012614;28;20061;-82
2021/11/14 12:01:33;;;;;;;9.63;8.10;;;11.30;74.30;;;;;;5034551;28;20108;-82
2021/11/14 12:04:20;;;;;;;10.30;6.87;;;11.30;74.00;;;;;;5032197;28;20029;-81
2021/11/14 12:07:11;;;;;;;8.77;6.90;;;11.20;73.90;;;;;;5026980;28;20022;-81
2021/11/14 12:13:03;;;;;;;7.67;6.30;;;11.20;73.90;;;;;;5031211;28;20067;-81
2021/11/14 12:15:37;;;;;;;9.10;5.60;;;11.30;73.90;;;;;;5021240;28;20104;-81
2021/11/14 12:21:40;;;;;;;8.93;6.00;;;11.30;73.60;;;;;;5022729;28;20032;-81
2021/11/14 12:24:09;;;;;;;9.40;5.57;;;11.30;73.40;;;;;;5026763;28;20099;-82
2021/11/14 12:26:37;;;;;;;8.87;5.87;;;11.30;73.60;;;;;;5044439;28;20372;-82
2021/11/14 12:29:06;;;;;;;8.43;5.83;;;11.30;74.20;;;;;;5034421;28;20041;-82
2021/11/14 12:31:48;;;;;;;10.57;5.73;;;11.30;73.60;;;;;;5038999;28;20079;-82
2021/11/14 12:34:27;;;;;;;8.60;5.50;;;11.30;73.60;;;;;;5023845;28;20475;-82
2021/11/14 12:37:06;;;;;;;10.17;5.57;;;11.30;73.60;;;;;;5023913;28;20189;-82
2021/11/14 12:39:35;;;;;;;7.63;5.80;;;11.30;73.60;;;;;;5021946;28;20405;-82
2021/11/14 12:42:07;;;;;;;8.77;5.93;;;11.30;73.50;;;;;;5037860;28;20018;-81
2021/11/14 12:44:44;;;;;;;10.55;7.53;;;11.40;73.50;;;;;;5014692;28;20188;-81
2021/11/14 12:47:30;;;;;;;11.50;6.73;;;11.30;73.30;;;;;;5042134;28;20018;-81
2021/11/14 12:50:16;;;;;;;13.70;8.53;;;11.30;73.50;;;;;;5029293;28;20528;-81
2021/11/14 12:52:49;;;;;;;24.20;12.20;;;11.30;73.50;;;;;;5036628;28;20032;-81
2021/11/14 12:55:19;;;;;;;19.00;13.68;;;11.30;73.50;;;;;;5039009;28;20028;-81
2021/11/14 12:58:05;;;;;;;20.37;13.90;;;11.30;73.60;;;;;;5036543;28;20030;-82